Time;durP1;ratioP1;P1;durP2;ratioP2;P2;SDS_P1;SDS_P2;PMS_P1;PMS_P2;Temp;Humidity;BMP_temperature;BMP_pressure;BME280_temperature;BME280_humidity;BME280_pressure;Samples;Min_cycle;Max_cycle;Signal;HPM_P1;HPM_P2
2022/03/14 00:00:39;;;;;;;17.02;11.07;;;;;;;;;;4942784;29;20491;-72
2022/03/14 00:03:10;;;;;;;12.80;11.48;;;;;;;;;;4947005;29;20518;-74
2022/03/14 00:05:42;;;;;;;11.50;10.40;;;;;;;;;;4942860;28;20131;-74
2022/03/14 00:08:13;;;;;;;12.50;11.27;;;;;;;;;;4944055;29;20055;-74
2022/03/14 00:10:45;;;;;;;13.43;11.02;;;;;;;;;;4954487;28;20204;-74
2022/03/14 00:13:17;;;;;;;14.02;11.48;;;;;;;;;;4945161;29;20059;-72
2022/03/14 00:15:48;;;;;;;16.95;12.40;;;;;;;;;;4941133;29;20131;-72
2022/03/14 00:18:18;;;;;;;15.90;12.68;;;;;;;;;;4944180;29;20051;-72
2022/03/14 00:20:48;;;;;;;15.70;12.07;;;;;;;;;;4944289;29;20058;-72
2022/03/14 00:23:18;;;;;;;13.15;11.88;;;;;;;;;;4942336;28;20056;-73
2022/03/14 00:25:50;;;;;;;17.10;11.18;;;;;;;;;;4938875;29;20075;-73
2022/03/14 00:28:18;;;;;;;12.50;10.25;;;;;;;;;;4951985;28;20062;-73
2022/03/14 00:30:48;;;;;;;11.77;9.90;;;;;;;;;;4957048;28;20520;-73
2022/03/14 00:33:16;;;;;;;11.80;10.65;;;;;;;;;;4938052;29;20065;-73
2022/03/14 00:35:45;;;;;;;13.90;11.13;;;;;;;;;;4938606;29;20051;-74
2022/03/14 00:38:14;;;;;;;12.90;11.30;;;;;;;;;;4945480;29;20110;-74
2022/03/14 00:40:44;;;;;;;12.73;11.52;;;;;;;;;;4956400;29;20418;-75
2022/03/14 00:43:13;;;;;;;14.95;12.43;;;;;;;;;;4937610;29;20498;-73
2022/03/14 00:45:42;;;;;;;13.75;12.35;;;;;;;;;;4938329;29;20154;-73
2022/03/14 00:48:10;;;;;;;15.48;12.40;;;;;;;;;;4936892;29;20525;-73
2022/03/14 00:50:38;;;;;;;16.30;12.07;;;;;;;;;;4950318;29;20052;-73
2022/03/14 00:53:08;;;;;;;15.07;12.10;;;;;;;;;;4941141;28;20551;-74
2022/03/14 00:55:36;;;;;;;15.50;13.90;;;;;;;;;;4937255;29;20853;-74
2022/03/14 00:58:07;;;;;;;15.40;12.45;;;;;;;;;;4937561;29;20542;-75
2022/03/14 01:00:37;;;;;;;17.00;13.52;;;;;;;;;;4938415;29;20129;-73
2022/03/14 01:03:07;;;;;;;13.65;12.23;;;;;;;;;;4937623;29;20495;-73
2022/03/14 01:05:36;;;;;;;14.50;12.23;;;;;;;;;;4937590;29;20103;-74
2022/03/14 01:08:08;;;;;;;14.25;12.00;;;;;;;;;;4937688;29;20076;-73
2022/03/14 01:10:37;;;;;;;14.38;11.75;;;;;;;;;;4948208;29;20059;-74
2022/03/14 01:13:06;;;;;;;14.75;11.85;;;;;;;;;;4948554;28;20058;-75
2022/03/14 01:15:36;;;;;;;15.30;13.35;;;;;;;;;;4937577;29;20059;-74
2022/03/14 01:18:07;;;;;;;15.15;12.45;;;;;;;;;;4941791;29;20183;-73
2022/03/14 01:20:36;;;;;;;14.35;12.88;;;;;;;;;;4956728;28;20138;-75
2022/03/14 01:23:04;;;;;;;16.77;13.90;;;;;;;;;;4956588;28;20066;-74
2022/03/14 01:25:33;;;;;;;18.63;13.40;;;;;;;;;;4956425;28;20410;-74
2022/03/14 01:28:02;;;;;;;15.10;13.23;;;;;;;;;;4956411;28;20138;-74
2022/03/14 01:30:31;;;;;;;17.35;13.75;;;;;;;;;;4956529;28;20174;-74
2022/03/14 01:33:00;;;;;;;18.30;14.07;;;;;;;;;;4955718;28;20079;-75
2022/03/14 01:35:28;;;;;;;20.60;14.15;;;;;;;;;;4954905;28;20467;-74
2022/03/14 01:37:57;;;;;;;15.05;13.23;;;;;;;;;;4955429;28;20114;-74
2022/03/14 01:40:28;;;;;;;17.58;15.70;;;;;;;;;;4957288;28;20051;-74
2022/03/14 01:42:57;;;;;;;16.52;14.63;;;;;;;;;;4940610;29;20139;-73
2022/03/14 01:45:25;;;;;;;16.83;14.27;;;;;;;;;;4942558;29;20059;-74
2022/03/14 01:47:53;;;;;;;18.92;14.85;;;;;;;;;;4958997;28;20050;-74
2022/03/14 01:50:20;;;;;;;17.45;14.43;;;;;;;;;;4959307;28;20502;-72
2022/03/14 01:52:49;;;;;;;15.30;13.68;;;;;;;;;;4948687;29;20415;-74
2022/03/14 01:55:18;;;;;;;18.85;13.07;;;;;;;;;;4959371;29;20051;-72
2022/03/14 01:57:47;;;;;;;17.95;13.98;;;;;;;;;;4959822;28;20055;-74
2022/03/14 02:00:16;;;;;;;17.17;13.23;;;;;;;;;;4959659;29;20062;-72
2022/03/14 02:02:45;;;;;;;17.23;14.27;;;;;;;;;;4959890;28;20047;-72
2022/03/14 02:05:14;;;;;;;18.90;14.70;;;;;;;;;;4958882;29;20403;-73
2022/03/14 02:07:43;;;;;;;19.23;15.10;;;;;;;;;;4952188;29;20095;-73
2022/03/14 02:10:12;;;;;;;17.65;14.00;;;;;;;;;;4940610;29;20086;-73
2022/03/14 02:12:44;;;;;;;16.45;14.32;;;;;;;;;;4941272;29;20131;-73
2022/03/14 02:15:12;;;;;;;16.13;14.43;;;;;;;;;;4941477;29;20062;-73
2022/03/14 02:17:40;;;;;;;19.88;14.75;;;;;;;;;;4940347;29;20052;-75
2022/03/14 02:20:11;;;;;;;17.75;14.73;;;;;;;;;;4940275;29;20563;-75
2022/03/14 02:22:40;;;;;;;16.10;14.20;;;;;;;;;;4939860;29;20066;-74
2022/03/14 02:25:10;;;;;;;16.00;14.32;;;;;;;;;;4958453;29;20126;-75
2022/03/14 02:27:39;;;;;;;17.77;14.27;;;;;;;;;;4959716;28;20051;-73
2022/03/14 02:30:08;;;;;;;17.13;15.30;;;;;;;;;;4959466;28;20527;-73
2022/03/14 02:32:41;;;;;;;15.77;14.05;;;;;;;;;;4953724;28;20055;-73
2022/03/14 02:35:12;;;;;;;16.08;14.35;;;;;;;;;;4940033;29;20579;-73
2022/03/14 02:37:40;;;;;;;14.68;12.18;;;;;;;;;;4953056;29;20387;-74
2022/03/14 02:40:13;;;;;;;18.80;13.75;;;;;;;;;;4954256;29;20062;-75
2022/03/14 02:42:41;;;;;;;18.17;13.27;;;;;;;;;;4939804;29;20069;-74
2022/03/14 02:45:11;;;;;;;18.70;13.38;;;;;;;;;;4939902;29;20534;-74
2022/03/14 02:47:40;;;;;;;16.45;13.70;;;;;;;;;;4939811;29;20443;-74
2022/03/14 02:50:08;;;;;;;16.98;13.82;;;;;;;;;;4939820;29;20047;-75
2022/03/14 02:52:38;;;;;;;15.73;13.60;;;;;;;;;;4957607;28;20102;-75
2022/03/14 02:55:08;;;;;;;21.88;13.95;;;;;;;;;;4939801;29;20051;-74
2022/03/14 02:57:37;;;;;;;15.07;13.50;;;;;;;;;;4940270;29;20473;-73
2022/03/14 03:00:10;;;;;;;21.73;16.00;;;;;;;;;;4939640;29;20052;-73
2022/03/14 03:02:42;;;;;;;17.98;14.50;;;;;;;;;;4940166;29;20068;-73
2022/03/14 03:05:10;;;;;;;15.55;13.85;;;;;;;;;;4939712;29;20156;-73
2022/03/14 03:07:39;;;;;;;18.63;14.98;;;;;;;;;;4939329;29;20047;-75
2022/03/14 03:10:09;;;;;;;15.23;13.65;;;;;;;;;;4948910;29;20040;-74
2022/03/14 03:12:40;;;;;;;15.70;13.65;;;;;;;;;;4952299;28;20052;-75
2022/03/14 03:15:12;;;;;;;18.67;16.52;;;;;;;;;;4939279;29;20055;-73
2022/03/14 03:17:42;;;;;;;15.27;13.43;;;;;;;;;;4939020;29;20106;-73
2022/03/14 03:20:14;;;;;;;18.55;14.15;;;;;;;;;;4939334;29;20043;-73
2022/03/14 03:22:43;;;;;;;17.75;14.65;;;;;;;;;;4938969;29;20067;-75
2022/03/14 03:25:13;;;;;;;17.98;14.93;;;;;;;;;;4939050;29;20047;-73
2022/03/14 03:27:41;;;;;;;18.80;14.60;;;;;;;;;;4939388;29;20134;-74
2022/03/14 03:30:11;;;;;;;18.48;16.55;;;;;;;;;;4939554;29;20110;-73
2022/03/14 03:32:41;;;;;;;21.75;15.35;;;;;;;;;;4939207;29;20056;-73
2022/03/14 03:35:10;;;;;;;19.70;17.15;;;;;;;;;;4938889;29;20102;-73
2022/03/14 03:37:39;;;;;;;19.23;14.73;;;;;;;;;;4939002;29;20047;-73
2022/03/14 03:40:11;;;;;;;16.58;14.90;;;;;;;;;;4945054;29;20055;-73
2022/03/14 03:42:39;;;;;;;19.17;14.85;;;;;;;;;;4939789;29;20055;-73
2022/03/14 03:45:09;;;;;;;15.60;13.82;;;;;;;;;;4938626;29;20500;-72
2022/03/14 03:47:37;;;;;;;17.58;15.55;;;;;;;;;;4938774;29;20048;-72
2022/03/14 03:50:09;;;;;;;17.02;15.23;;;;;;;;;;4938603;29;20183;-72
2022/03/14 03:52:36;;;;;;;17.42;15.63;;;;;;;;;;4938641;29;20075;-73
2022/03/14 03:55:06;;;;;;;19.65;15.70;;;;;;;;;;4956131;29;20116;-72
2022/03/14 03:57:39;;;;;;;17.90;15.00;;;;;;;;;;4957392;28;20050;-73
2022/03/14 04:00:12;;;;;;;19.98;17.38;;;;;;;;;;4957497;28;20498;-73
2022/03/14 04:02:42;;;;;;;16.33;14.40;;;;;;;;;;4957280;28;20443;-72
2022/03/14 04:05:14;;;;;;;17.73;15.90;;;;;;;;;;4957515;28;20062;-74
2022/03/14 04:07:44;;;;;;;15.63;13.90;;;;;;;;;;4956962;28;20087;-73
2022/03/14 04:10:14;;;;;;;17.25;15.45;;;;;;;;;;4957656;28;20189;-73
2022/03/14 04:12:44;;;;;;;19.45;17.35;;;;;;;;;;4939039;28;20455;-74
2022/03/14 04:15:12;;;;;;;20.05;16.35;;;;;;;;;;4956233;29;20471;-75
2022/03/14 04:17:42;;;;;;;20.08;14.90;;;;;;;;;;4957232;28;20099;-75
2022/03/14 04:20:12;;;;;;;16.20;14.35;;;;;;;;;;4957199;28;20087;-73
2022/03/14 04:22:41;;;;;;;16.58;14.88;;;;;;;;;;4957359;28;20529;-74
2022/03/14 04:25:11;;;;;;;20.70;15.02;;;;;;;;;;4946290;28;20845;-76
2022/03/14 04:27:40;;;;;;;17.95;13.73;;;;;;;;;;4938073;29;20136;-77
2022/03/14 04:30:11;;;;;;;17.52;15.65;;;;;;;;;;4938301;29;20099;-76
2022/03/14 04:32:41;;;;;;;16.30;14.65;;;;;;;;;;4937889;29;20077;-75
2022/03/14 04:35:10;;;;;;;20.30;15.50;;;;;;;;;;4937875;29;20123;-75
2022/03/14 04:37:37;;;;;;;15.95;14.25;;;;;;;;;;4937763;29;20134;-75
2022/03/14 04:40:06;;;;;;;16.80;14.98;;;;;;;;;;4944455;29;20092;-76
2022/03/14 04:42:35;;;;;;;17.90;15.52;;;;;;;;;;4938021;28;20506;-76
2022/03/14 04:45:04;;;;;;;19.95;15.23;;;;;;;;;;4955544;29;20063;-75
2022/03/14 04:47:33;;;;;;;17.05;15.25;;;;;;;;;;4954955;29;20051;-74
2022/03/14 04:50:03;;;;;;;18.10;15.10;;;;;;;;;;4951130;29;20118;-76
2022/03/14 04:52:34;;;;;;;16.77;14.55;;;;;;;;;;4937105;29;20139;-75
2022/03/14 04:55:02;;;;;;;19.88;15.63;;;;;;;;;;4937068;29;20059;-76
2022/03/14 04:57:33;;;;;;;16.50;14.77;;;;;;;;;;4936722;29;20107;-74
2022/03/14 05:00:01;;;;;;;19.92;16.42;;;;;;;;;;4937337;29;20076;-76
2022/03/14 05:02:30;;;;;;;18.30;16.38;;;;;;;;;;4937268;29;20060;-76
2022/03/14 05:04:59;;;;;;;17.05;14.75;;;;;;;;;;4946970;29;20420;-74
2022/03/14 05:07:27;;;;;;;20.23;14.65;;;;;;;;;;4956693;28;20442;-76
2022/03/14 05:09:56;;;;;;;19.83;14.85;;;;;;;;;;4961070;28;20532;-74
2022/03/14 05:12:25;;;;;;;19.25;14.68;;;;;;;;;;4952020;28;20059;-73
2022/03/14 05:14:55;;;;;;;23.08;15.40;;;;;;;;;;4949029;29;20052;-75
2022/03/14 05:17:25;;;;;;;22.52;15.93;;;;;;;;;;4949532;28;20063;-73
2022/03/14 05:19:54;;;;;;;17.98;14.88;;;;;;;;;;4952182;29;20525;-74
2022/03/14 05:22:23;;;;;;;22.02;16.02;;;;;;;;;;4956771;28;20058;-75
2022/03/14 05:24:52;;;;;;;17.00;14.70;;;;;;;;;;4956516;29;20055;-72
2022/03/14 05:27:21;;;;;;;18.45;15.90;;;;;;;;;;4943839;28;20491;-73
2022/03/14 05:29:50;;;;;;;20.38;15.15;;;;;;;;;;4937516;29;20098;-74
2022/03/14 05:32:20;;;;;;;22.05;14.63;;;;;;;;;;4937198;29;20143;-74
2022/03/14 05:34:53;;;;;;;17.92;14.40;;;;;;;;;;4956159;29;20134;-74
2022/03/14 05:37:22;;;;;;;19.65;15.00;;;;;;;;;;4956460;28;20078;-74
2022/03/14 05:39:51;;;;;;;17.50;15.50;;;;;;;;;;4953106;28;20458;-73
2022/03/14 05:42:20;;;;;;;18.45;15.85;;;;;;;;;;4936898;29;20083;-73
2022/03/14 05:44:49;;;;;;;17.90;16.02;;;;;;;;;;4936708;29;20055;-75
2022/03/14 05:47:28;;;;;;;18.70;15.55;;;;;;;;;;4937385;29;20048;-73
2022/03/14 05:49:55;;;;;;;21.08;15.60;;;;;;;;;;4937037;29;20391;-74
2022/03/14 05:52:24;;;;;;;19.50;17.40;;;;;;;;;;4937130;29;20479;-73
2022/03/14 05:54:53;;;;;;;21.38;15.85;;;;;;;;;;4935462;29;20119;-74
2022/03/14 05:57:21;;;;;;;16.77;15.13;;;;;;;;;;4936705;29;20423;-75
2022/03/14 05:59:50;;;;;;;18.13;15.18;;;;;;;;;;4939044;29;20103;-73
2022/03/14 06:02:21;;;;;;;21.00;16.85;;;;;;;;;;4945082;28;20043;-74
2022/03/14 06:04:49;;;;;;;18.55;16.27;;;;;;;;;;4951459;29;20055;-74
2022/03/14 06:07:19;;;;;;;18.85;16.70;;;;;;;;;;4943802;28;20159;-74
2022/03/14 06:09:49;;;;;;;21.85;17.05;;;;;;;;;;4942604;28;20051;-75
2022/03/14 06:12:23;;;;;;;21.98;15.98;;;;;;;;;;4940079;28;20454;-75
2022/03/14 06:14:54;;;;;;;19.20;15.45;;;;;;;;;;4937878;29;20055;-76
2022/03/14 06:17:22;;;;;;;24.38;18.23;;;;;;;;;;4944864;29;20051;-75
2022/03/14 06:19:50;;;;;;;19.50;16.25;;;;;;;;;;4947391;28;20083;-76
2022/03/14 06:22:21;;;;;;;22.25;18.73;;;;;;;;;;4942788;28;20048;-75
2022/03/14 06:24:51;;;;;;;20.88;16.95;;;;;;;;;;4940418;28;20099;-74
2022/03/14 06:27:21;;;;;;;19.90;17.38;;;;;;;;;;4948718;28;20051;-76
2022/03/14 06:29:53;;;;;;;20.27;17.65;;;;;;;;;;4929208;28;20399;-75
2022/03/14 06:32:22;;;;;;;24.85;17.95;;;;;;;;;;4955023;28;20043;-74
2022/03/14 06:34:50;;;;;;;19.92;16.85;;;;;;;;;;4942734;29;20082;-76
2022/03/14 06:37:21;;;;;;;20.38;16.17;;;;;;;;;;4944608;29;20040;-75
2022/03/14 06:39:50;;;;;;;18.33;16.35;;;;;;;;;;4946219;28;20105;-74
2022/03/14 06:42:19;;;;;;;18.23;16.42;;;;;;;;;;4949090;28;20082;-74
2022/03/14 06:44:49;;;;;;;17.67;15.50;;;;;;;;;;4947315;28;20115;-74
2022/03/14 06:47:18;;;;;;;20.08;16.50;;;;;;;;;;4946147;28;20055;-75
2022/03/14 06:49:47;;;;;;;18.48;16.55;;;;;;;;;;4946972;28;20098;-76
2022/03/14 06:52:16;;;;;;;21.65;17.27;;;;;;;;;;4944435;28;20051;-74
2022/03/14 06:54:45;;;;;;;19.38;16.30;;;;;;;;;;4949038;28;20130;-73
2022/03/14 06:57:13;;;;;;;23.75;16.95;;;;;;;;;;4943336;28;20511;-74
2022/03/14 06:59:42;;;;;;;27.13;18.73;;;;;;;;;;4942923;28;20050;-76
2022/03/14 07:02:11;;;;;;;19.92;17.80;;;;;;;;;;4944088;28;20078;-74
2022/03/14 07:04:40;;;;;;;22.58;17.33;;;;;;;;;;4944573;29;20075;-74
2022/03/14 07:07:10;;;;;;;21.85;17.63;;;;;;;;;;4952931;28;20122;-75
2022/03/14 07:09:39;;;;;;;25.23;17.85;;;;;;;;;;4943824;28;20051;-77
2022/03/14 07:12:12;;;;;;;21.60;16.98;;;;;;;;;;4944923;29;20043;-75
2022/03/14 07:14:40;;;;;;;19.83;17.05;;;;;;;;;;4940437;28;20499;-76
2022/03/14 07:17:10;;;;;;;18.60;16.60;;;;;;;;;;4944198;29;20156;-75
2022/03/14 07:19:45;;;;;;;18.63;16.70;;;;;;;;;;4945302;29;20044;-74
2022/03/14 07:22:18;;;;;;;21.92;15.95;;;;;;;;;;4945100;29;20052;-76
2022/03/14 07:24:53;;;;;;;19.35;16.48;;;;;;;;;;4945777;29;20104;-76
2022/03/14 07:27:23;;;;;;;25.35;16.50;;;;;;;;;;4939266;29;20048;-73
2022/03/14 07:29:50;;;;;;;18.77;15.07;;;;;;;;;;4945257;29;20126;-74
2022/03/14 07:32:21;;;;;;;18.92;16.15;;;;;;;;;;4952014;28;20051;-75
2022/03/14 07:34:50;;;;;;;19.38;16.83;;;;;;;;;;4944380;29;20086;-74
2022/03/14 07:37:19;;;;;;;17.63;15.32;;;;;;;;;;4949794;28;20047;-74
2022/03/14 07:39:48;;;;;;;17.10;15.40;;;;;;;;;;4944738;29;20240;-75
2022/03/14 07:42:16;;;;;;;19.92;14.63;;;;;;;;;;4957965;28;20055;-76
2022/03/14 07:44:45;;;;;;;15.65;13.82;;;;;;;;;;4951481;28;20058;-75
2022/03/14 07:47:14;;;;;;;15.95;14.25;;;;;;;;;;4938538;29;20054;-77
2022/03/14 07:49:44;;;;;;;14.25;12.80;;;;;;;;;;4942615;28;20094;-82
2022/03/14 07:52:11;;;;;;;15.63;14.00;;;;;;;;;;4943503;28;20114;-75
2022/03/14 07:54:42;;;;;;;16.88;14.43;;;;;;;;;;4945073;29;20051;-77
2022/03/14 07:57:09;;;;;;;16.23;14.18;;;;;;;;;;4953077;29;20079;-75
2022/03/14 07:59:39;;;;;;;16.35;13.38;;;;;;;;;;4943335;29;20058;-75
2022/03/14 08:02:08;;;;;;;14.68;12.80;;;;;;;;;;4941005;28;20541;-77
2022/03/14 08:04:39;;;;;;;17.15;14.52;;;;;;;;;;4951687;29;20047;-76
2022/03/14 08:07:08;;;;;;;14.20;12.90;;;;;;;;;;4948129;29;20114;-77
2022/03/14 08:09:37;;;;;;;15.95;14.27;;;;;;;;;;4946762;29;20415;-79
2022/03/14 08:12:08;;;;;;;16.05;12.68;;;;;;;;;;4940102;29;20058;-78
2022/03/14 08:14:37;;;;;;;13.88;12.45;;;;;;;;;;4950990;29;20057;-78
2022/03/14 08:17:06;;;;;;;13.95;12.57;;;;;;;;;;4947814;28;20055;-76
2022/03/14 08:19:34;;;;;;;15.00;13.38;;;;;;;;;;4943270;28;20080;-78
2022/03/14 08:22:02;;;;;;;15.85;14.02;;;;;;;;;;4943176;29;20051;-74
2022/03/14 08:24:32;;;;;;;15.32;13.05;;;;;;;;;;4943113;29;20503;-77
2022/03/14 08:27:01;;;;;;;14.93;13.32;;;;;;;;;;4946422;28;20423;-78
2022/03/14 08:29:30;;;;;;;15.73;13.52;;;;;;;;;;4942926;29;20036;-77
2022/03/14 08:32:00;;;;;;;17.58;13.20;;;;;;;;;;4941446;29;20101;-78
2022/03/14 08:34:28;;;;;;;13.55;12.15;;;;;;;;;;4939503;29;20075;-78
2022/03/14 08:36:57;;;;;;;17.45;12.95;;;;;;;;;;4944988;29;20052;-79
2022/03/14 08:39:26;;;;;;;15.93;12.38;;;;;;;;;;4941861;29;20099;-77
2022/03/14 08:41:55;;;;;;;14.18;12.65;;;;;;;;;;4944300;29;20059;-74
2022/03/14 08:44:27;;;;;;;13.02;11.73;;;;;;;;;;4942286;29;20074;-75
2022/03/14 08:46:55;;;;;;;12.50;11.23;;;;;;;;;;4950528;29;20070;-75
2022/03/14 08:49:23;;;;;;;13.98;12.50;;;;;;;;;;4941443;29;20048;-74
2022/03/14 08:51:53;;;;;;;14.80;12.45;;;;;;;;;;4940812;28;20055;-76
2022/03/14 08:54:22;;;;;;;14.82;13.25;;;;;;;;;;4940668;29;20055;-77
2022/03/14 08:56:50;;;;;;;16.55;12.55;;;;;;;;;;4943336;28;20060;-77
2022/03/14 08:59:18;;;;;;;13.75;12.35;;;;;;;;;;4945871;28;20106;-77
2022/03/14 09:01:46;;;;;;;13.63;11.48;;;;;;;;;;4943437;29;20082;-78
2022/03/14 09:04:16;;;;;;;14.38;11.18;;;;;;;;;;4945831;29;20051;-79
2022/03/14 09:06:45;;;;;;;15.05;11.18;;;;;;;;;;4945791;29;20059;-76
2022/03/14 09:09:14;;;;;;;15.43;11.90;;;;;;;;;;4952176;29;20070;-77
2022/03/14 09:11:44;;;;;;;15.82;13.15;;;;;;;;;;4939360;29;20094;-77
2022/03/14 09:14:20;;;;;;;14.90;11.90;;;;;;;;;;4939159;29;20048;-77
2022/03/14 09:16:48;;;;;;;15.98;13.40;;;;;;;;;;4940986;29;20141;-76
2022/03/14 09:19:16;;;;;;;12.35;11.15;;;;;;;;;;4939191;29;20059;-76
2022/03/14 09:21:46;;;;;;;14.95;12.02;;;;;;;;;;4931176;29;20050;-77
2022/03/14 09:24:17;;;;;;;11.90;10.70;;;;;;;;;;4943125;29;20396;-77
2022/03/14 09:26:47;;;;;;;12.70;11.23;;;;;;;;;;4939674;28;20048;-78
2022/03/14 09:29:16;;;;;;;13.15;10.02;;;;;;;;;;4941001;28;20056;-77
2022/03/14 09:31:44;;;;;;;13.48;11.50;;;;;;;;;;4941590;29;20110;-76
2022/03/14 09:34:13;;;;;;;15.40;10.82;;;;;;;;;;4944325;29;20586;-76
2022/03/14 09:36:41;;;;;;;13.80;11.07;;;;;;;;;;4943035;28;20079;-75
2022/03/14 09:39:13;;;;;;;14.65;11.10;;;;;;;;;;4943382;28;20130;-79
2022/03/14 09:41:45;;;;;;;12.53;11.33;;;;;;;;;;4948307;28;20062;-79
2022/03/14 09:44:15;;;;;;;12.80;11.07;;;;;;;;;;4946712;29;20086;-80
2022/03/14 09:46:49;;;;;;;14.88;9.73;;;;;;;;;;4956520;28;20081;-80
2022/03/14 09:49:20;;;;;;;11.20;9.50;;;;;;;;;;4956376;28;20055;-78
2022/03/14 09:51:49;;;;;;;12.25;9.73;;;;;;;;;;4956306;28;20070;-78
2022/03/14 09:54:21;;;;;;;13.95;10.00;;;;;;;;;;4957049;28;20074;-79
2022/03/14 09:57:00;;;;;;;13.30;10.13;;;;;;;;;;4953550;28;20054;-78
2022/03/14 09:59:30;;;;;;;11.38;10.25;;;;;;;;;;4938773;28;20071;-78
2022/03/14 10:01:58;;;;;;;12.52;9.00;;;;;;;;;;4940420;29;20051;-80
2022/03/14 10:04:27;;;;;;;15.25;9.77;;;;;;;;;;4941162;29;20499;-80
2022/03/14 10:06:56;;;;;;;14.48;11.07;;;;;;;;;;4947587;29;20195;-77
2022/03/14 10:09:26;;;;;;;12.57;8.98;;;;;;;;;;4947821;29;20694;-80
2022/03/14 10:11:58;;;;;;;11.25;9.68;;;;;;;;;;4959918;28;20102;-80
2022/03/14 10:14:27;;;;;;;12.60;9.15;;;;;;;;;;4952320;28;20079;-79
2022/03/14 10:16:55;;;;;;;11.88;9.75;;;;;;;;;;4941533;29;20079;-79
2022/03/14 10:19:36;;;;;;;11.75;10.25;;;;;;;;;;4942561;29;20071;-79
2022/03/14 10:22:14;;;;;;;10.70;9.52;;;;;;;;;;4959392;28;20055;-81
2022/03/14 10:24:44;;;;;;;10.55;9.45;;;;;;;;;;4958526;28;20110;-80
2022/03/14 10:27:12;;;;;;;11.38;9.07;;;;;;;;;;4957337;28;20102;-79
2022/03/14 10:29:42;;;;;;;13.13;9.73;;;;;;;;;;4951571;29;20110;-80
2022/03/14 10:32:28;;;;;;;11.10;9.95;;;;;;;;;;4942944;28;20056;-79
2022/03/14 10:35:18;;;;;;;10.55;9.55;;;;;;;;;;5066916;23;20077;-72
2022/03/14 10:38:01;;;;;;;15.73;10.65;;;;;;;;;;4871974;28;20063;-73
2022/03/14 10:40:32;;;;;;;11.40;9.68;;;;;;;;;;4938300;29;20052;-73
2022/03/14 10:43:00;;;;;;;12.40;11.20;;;;;;;;;;4954029;28;20058;-72
2022/03/14 10:45:33;;;;;;;12.23;11.13;;;;;;;;;;4957474;28;20097;-72
2022/03/14 10:48:02;;;;;;;16.33;11.20;;;;;;;;;;4957815;28;20371;-65
2022/03/14 10:50:35;;;;;;;10.93;9.85;;;;;;;;;;4957615;28;20597;-64
2022/03/14 10:53:10;;;;;;;16.55;11.60;;;;;;;;;;4956986;28;20051;-64
2022/03/14 10:55:41;;;;;;;12.55;11.30;;;;;;;;;;4950399;28;20043;-64
2022/03/14 10:58:12;;;;;;;13.27;11.55;;;;;;;;;;4943366;29;20063;-64
2022/03/14 11:00:56;;;;;;;12.52;10.55;;;;;;;;;;4938477;28;20044;-64
2022/03/14 11:03:24;;;;;;;15.13;9.20;;;;;;;;;;4938214;29;20058;-64
2022/03/14 11:05:54;;;;;;;15.00;11.35;;;;;;;;;;4952662;29;20134;-62
2022/03/14 11:08:29;;;;;;;12.20;10.13;;;;;;;;;;4957474;28;20050;-62
2022/03/14 11:11:00;;;;;;;10.55;9.43;;;;;;;;;;4949211;29;20067;-62
2022/03/14 11:13:28;;;;;;;10.82;9.70;;;;;;;;;;4937624;29;20073;-62
2022/03/14 11:16:01;;;;;;;10.55;9.55;;;;;;;;;;4938140;29;20048;-62
2022/03/14 11:18:32;;;;;;;11.63;9.88;;;;;;;;;;4937678;29;20392;-62
2022/03/14 11:21:02;;;;;;;10.07;9.07;;;;;;;;;;4936897;29;20403;-62
2022/03/14 11:23:31;;;;;;;11.10;10.00;;;;;;;;;;4937092;29;20078;-63
2022/03/14 11:26:00;;;;;;;12.93;9.93;;;;;;;;;;4937518;29;20055;-62
2022/03/14 11:28:34;;;;;;;15.07;9.82;;;;;;;;;;4937794;29;20051;-65
2022/03/14 11:31:03;;;;;;;10.75;9.65;;;;;;;;;;4937848;29;20056;-63
2022/03/14 11:33:32;;;;;;;12.07;10.38;;;;;;;;;;4938115;29;20447;-65
2022/03/14 11:36:02;;;;;;;10.68;9.52;;;;;;;;;;4956251;28;20051;-63
2022/03/14 11:38:34;;;;;;;12.07;10.13;;;;;;;;;;4957166;28;20122;-63
2022/03/14 11:41:03;;;;;;;10.95;9.55;;;;;;;;;;4955444;28;20058;-64
2022/03/14 11:43:35;;;;;;;10.13;9.13;;;;;;;;;;4950298;29;20047;-63
2022/03/14 11:46:25;;;;;;;12.00;10.88;;;;;;;;;;4952411;29;20498;-63
2022/03/14 11:49:15;;;;;;;9.55;8.65;;;;;;;;;;4970294;28;20043;-64
2022/03/14 11:51:44;;;;;;;10.55;9.40;;;;;;;;;;4955885;28;20418;-63
2022/03/14 11:54:14;;;;;;;12.30;8.75;;;;;;;;;;4955540;28;20397;-63
2022/03/14 11:56:54;;;;;;;10.50;9.32;;;;;;;;;;4956054;28;20105;-64
2022/03/14 11:59:30;;;;;;;11.73;8.65;;;;;;;;;;4955567;28;20098;-64
2022/03/14 12:02:00;;;;;;;12.48;10.70;;;;;;;;;;4955298;29;20051;-64
2022/03/14 12:04:51;;;;;;;10.30;9.30;;;;;;;;;;4955596;28;20055;-63
2022/03/14 12:07:19;;;;;;;15.05;10.35;;;;;;;;;;4951778;29;20077;-64
2022/03/14 12:09:48;;;;;;;16.25;11.07;;;;;;;;;;4948125;29;20051;-65
2022/03/14 12:12:17;;;;;;;10.88;9.35;;;;;;;;;;4953775;29;20087;-65
2022/03/14 12:14:47;;;;;;;15.85;10.20;;;;;;;;;;4955752;28;20107;-64
2022/03/14 12:17:15;;;;;;;10.75;8.35;;;;;;;;;;4956172;29;20138;-64
2022/03/14 12:19:51;;;;;;;10.18;9.18;;;;;;;;;;4955365;28;20050;-64
2022/03/14 12:22:27;;;;;;;10.68;8.90;;;;;;;;;;4956158;28;20070;-64
2022/03/14 12:24:55;;;;;;;10.63;8.95;;;;;;;;;;4954858;28;20051;-64
2022/03/14 12:27:23;;;;;;;13.40;10.55;;;;;;;;;;4955426;29;20528;-65
2022/03/14 12:29:54;;;;;;;10.43;9.40;;;;;;;;;;4955819;28;20075;-65
2022/03/14 12:32:52;;;;;;;10.70;9.60;;;;;;;;;;4954754;28;20533;-64
2022/03/14 12:35:22;;;;;;;11.07;10.02;;;;;;;;;;4947345;29;20135;-64
2022/03/14 12:37:54;;;;;;;13.25;12.05;;;;;;;;;;4936067;29;20059;-65
2022/03/14 12:40:22;;;;;;;10.27;9.27;;;;;;;;;;4936706;29;20406;-64
2022/03/14 12:42:51;;;;;;;9.88;8.98;;;;;;;;;;4939015;29;20047;-64
2022/03/14 12:45:24;;;;;;;11.05;9.70;;;;;;;;;;4949725;29;20134;-64
2022/03/14 12:47:57;;;;;;;12.05;11.05;;;;;;;;;;4952663;29;20051;-65
2022/03/14 12:50:45;;;;;;;11.57;9.88;;;;;;;;;;4951369;29;20059;-66
2022/03/14 12:53:43;;;;;;;10.57;8.95;;;;;;;;;;4954703;28;20051;-65
2022/03/14 12:56:25;;;;;;;11.48;10.38;;;;;;;;;;4951939;29;20043;-67
2022/03/14 12:58:56;;;;;;;16.95;9.75;;;;;;;;;;4954413;28;20051;-65
2022/03/14 13:01:26;;;;;;;10.55;9.20;;;;;;;;;;4954689;29;20565;-66
2022/03/14 13:03:56;;;;;;;12.05;10.68;;;;;;;;;;4953842;28;20126;-66
2022/03/14 13:06:37;;;;;;;11.90;10.70;;;;;;;;;;4954541;29;20059;-66
2022/03/14 13:09:06;;;;;;;11.30;10.25;;;;;;;;;;4952343;29;20048;-65
2022/03/14 13:11:40;;;;;;;11.98;10.77;;;;;;;;;;4949911;28;20397;-65
2022/03/14 13:14:11;;;;;;;11.13;9.57;;;;;;;;;;4954111;28;20202;-65
2022/03/14 13:16:41;;;;;;;11.45;10.45;;;;;;;;;;4953586;28;20411;-65
2022/03/14 13:19:18;;;;;;;12.23;10.73;;;;;;;;;;4952797;28;20525;-66
2022/03/14 13:22:12;;;;;;;14.10;11.45;;;;;;;;;;4950758;28;20134;-65
2022/03/14 13:24:47;;;;;;;13.35;12.02;;;;;;;;;;4952922;29;20063;-65
2022/03/14 13:27:26;;;;;;;12.65;11.45;;;;;;;;;;4948426;28;20047;-64
2022/03/14 13:29:54;;;;;;;13.77;12.45;;;;;;;;;;4953374;28;20506;-65
2022/03/14 13:32:24;;;;;;;12.40;10.77;;;;;;;;;;4954210;28;20066;-64
2022/03/14 13:35:07;;;;;;;13.20;10.23;;;;;;;;;;4950281;29;20063;-65
2022/03/14 13:37:45;;;;;;;13.23;11.63;;;;;;;;;;4950638;29;20391;-65
2022/03/14 13:40:21;;;;;;;12.05;10.95;;;;;;;;;;4953060;28;20050;-65
2022/03/14 13:42:51;;;;;;;12.45;11.20;;;;;;;;;;4958381;28;20059;-63
2022/03/14 13:45:25;;;;;;;11.80;10.60;;;;;;;;;;4954916;29;20047;-64
2022/03/14 13:47:57;;;;;;;12.18;10.90;;;;;;;;;;4955285;29;20553;-64
2022/03/14 13:50:26;;;;;;;11.75;10.65;;;;;;;;;;4957182;29;20047;-64
2022/03/14 13:52:54;;;;;;;11.57;9.95;;;;;;;;;;4958166;29;20051;-64
2022/03/14 13:55:22;;;;;;;12.73;11.10;;;;;;;;;;4952673;28;20059;-64
2022/03/14 13:58:01;;;;;;;13.20;11.85;;;;;;;;;;4957140;29;20047;-64
2022/03/14 14:00:31;;;;;;;11.45;10.25;;;;;;;;;;4955917;29;20059;-64
2022/03/14 14:03:00;;;;;;;12.95;11.65;;;;;;;;;;4954783;29;20057;-64
2022/03/14 14:05:36;;;;;;;13.27;11.98;;;;;;;;;;4956457;29;20075;-64
2022/03/14 14:08:05;;;;;;;13.02;11.65;;;;;;;;;;4958183;28;20055;-63
2022/03/14 14:10:36;;;;;;;12.98;11.65;;;;;;;;;;4957517;28;20044;-63
2022/03/14 14:13:05;;;;;;;16.75;11.60;;;;;;;;;;4953494;28;20051;-63
2022/03/14 14:15:46;;;;;;;14.90;11.30;;;;;;;;;;4957428;28;20083;-64
2022/03/14 14:18:18;;;;;;;13.57;11.15;;;;;;;;;;4957539;28;20085;-64
2022/03/14 14:20:47;;;;;;;17.52;11.43;;;;;;;;;;4957665;28;20051;-63
2022/03/14 14:23:20;;;;;;;13.13;11.05;;;;;;;;;;4957488;28;20082;-64
2022/03/14 14:26:04;;;;;;;15.63;11.18;;;;;;;;;;4956897;28;20054;-64
2022/03/14 14:28:33;;;;;;;11.48;10.18;;;;;;;;;;4957411;28;20126;-63
2022/03/14 14:31:19;;;;;;;14.88;11.52;;;;;;;;;;4957800;28;20051;-63
2022/03/14 14:33:47;;;;;;;13.20;11.40;;;;;;;;;;4955848;28;20055;-63
2022/03/14 14:36:16;;;;;;;17.02;11.73;;;;;;;;;;4955291;29;20047;-63
2022/03/14 14:38:44;;;;;;;12.15;10.60;;;;;;;;;;4957099;28;20047;-63